Map

Track Data

SID SEASON NUMBER BASIN SUBBASIN NAME ISO_TIME NATURE LAT LON WMO_WIND WMO_PRES WMO_AGENCY TRACK_TYPE DIST2LAND LANDFALL IFLAG USA_AGENCY USA_ATCF_ID USA_LAT USA_LON USA_RECORD USA_STATUS USA_WIND USA_PRES USA_SSHS USA_R34_NE USA_R34_SE USA_R34_SW USA_R34_NW USA_R50_NE USA_R50_SE USA_R50_SW USA_R50_NW USA_R64_NE USA_R64_SE USA_R64_SW USA_R64_NW USA_POCI USA_ROCI USA_RMW USA_EYE TOKYO_LAT TOKYO_LON TOKYO_GRADE TOKYO_WIND TOKYO_PRES TOKYO_R50_DIR TOKYO_R50_LONG TOKYO_R50_SHORT TOKYO_R30_DIR TOKYO_R30_LONG TOKYO_R30_SHORT TOKYO_LAND CMA_LAT CMA_LON CMA_CAT CMA_WIND CMA_PRES HKO_LAT HKO_LON HKO_CAT HKO_WIND HKO_PRES NEWDELHI_LAT NEWDELHI_LON NEWDELHI_GRADE NEWDELHI_WIND NEWDELHI_PRES NEWDELHI_CI NEWDELHI_DP NEWDELHI_POCI REUNION_LAT REUNION_LON REUNION_TYPE REUNION_WIND REUNION_PRES REUNION_TNUM REUNION_CI REUNION_RMW REUNION_R34_NE REUNION_R34_SE REUNION_R34_SW REUNION_R34_NW REUNION_R50_NE REUNION_R50_SE REUNION_R50_SW REUNION_R50_NW REUNION_R64_NE REUNION_R64_SE REUNION_R64_SW REUNION_R64_NW BOM_LAT BOM_LON BOM_TYPE BOM_WIND BOM_PRES BOM_TNUM BOM_CI BOM_RMW BOM_R34_NE BOM_R34_SE BOM_R34_SW BOM_R34_NW BOM_R50_NE BOM_R50_SE BOM_R50_SW BOM_R50_NW BOM_R64_NE BOM_R64_SE BOM_R64_SW BOM_R64_NW BOM_ROCI BOM_POCI BOM_EYE BOM_POS_METHOD BOM_PRES_METHOD NADI_LAT NADI_LON NADI_CAT NADI_WIND NADI_PRES WELLINGTON_LAT WELLINGTON_LON WELLINGTON_WIND WELLINGTON_PRES DS824_LAT DS824_LON DS824_STAGE DS824_WIND DS824_PRES TD9636_LAT TD9636_LON TD9636_STAGE TD9636_WIND TD9636_PRES TD9635_LAT TD9635_LON TD9635_WIND TD9635_PRES TD9635_ROCI NEUMANN_LAT NEUMANN_LON NEUMANN_CLASS NEUMANN_WIND NEUMANN_PRES MLC_LAT MLC_LON MLC_CLASS MLC_WIND MLC_PRES USA_GUST BOM_GUST BOM_GUST_PER REUNION_GUST REUNION_GUST_PER USA_SEAHGT USA_SEARAD_NE USA_SEARAD_SE USA_SEARAD_SW USA_SEARAD_NW STORM_SPEED STORM_DIR
2001301N27325 2001 86 NA NA LORENZO 2001-10-27 12:00:00 TS 27.2000 -34.9000 30 1010 hurdat_atl main 1781 1781 O_____________ hurdat_atl AL142001 27.2000 -34.9000 TD 30 1010 -1 11 289
2001301N27325 2001 86 NA NA LORENZO 2001-10-27 15:00:00 TS 27.3804 -35.4894 main 1837 1837 P_____________ AL142001 27.3804 -35.4894 TD 30 1009 -1 11 286
2001301N27325 2001 86 NA NA LORENZO 2001-10-27 18:00:00 TS 27.5000 -36.1000 30 1009 hurdat_atl main 1894 1894 O_____________ hurdat_atl AL142001 27.5000 -36.1000 TD 30 1009 -1 11 277
2001301N27325 2001 86 NA NA LORENZO 2001-10-27 21:00:00 TS 27.5223 -36.7429 main 1953 1953 P_____________ AL142001 27.5223 -36.7429 TD 30 1009 -1 12 270
2001301N27325 2001 86 NA NA LORENZO 2001-10-28 00:00:00 TS 27.5000 -37.4000 30 1009 hurdat_atl main 2021 2021 O_____________ hurdat_atl AL142001 27.5000 -37.4000 TD 30 1009 -1 12 269
2001301N27325 2001 86 NA NA LORENZO 2001-10-28 03:00:00 TS 27.4999 -38.0650 main 2090 2090 P_____________ AL142001 27.4999 -38.0650 TD 30 1009 -1 12 270
2001301N27325 2001 86 NA NA LORENZO 2001-10-28 06:00:00 TS 27.5000 -38.7000 30 1009 hurdat_atl main 2148 2148 O_____________ hurdat_atl AL142001 27.5000 -38.7000 TD 30 1009 -1 11 270
2001301N27325 2001 86 NA NA LORENZO 2001-10-28 09:00:00 TS 27.4995 -39.2575 main 2207 2207 P_____________ AL142001 27.4995 -39.2575 TD 30 1009 -1 10 270
2001301N27325 2001 86 NA NA LORENZO 2001-10-28 12:00:00 TS 27.5000 -39.8000 30 1009 hurdat_atl main 2256 2256 O_____________ hurdat_atl AL142001 27.5000 -39.8000 TD 30 1009 -1 11 271
2001301N27325 2001 86 NA NA LORENZO 2001-10-28 15:00:00 TS 27.5230 -40.4598 main 2324 2324 P_____________ AL142001 27.5230 -40.4598 TD 30 1009 -1 11 270
2001301N27325 2001 86 NA NA LORENZO 2001-10-28 18:00:00 TS 27.5000 -41.0000 30 1009 hurdat_atl main 2373 2373 O_____________ hurdat_atl AL142001 27.5000 -41.0000 TD 30 1009 -1 7 252
2001301N27325 2001 86 NA NA LORENZO 2001-10-28 21:00:00 TS 27.3120 -41.1952 main 2392 2392 P_____________ AL142001 27.3120 -41.1952 TD 30 1009 -1 4 221
2001301N27325 2001 86 NA NA LORENZO 2001-10-29 00:00:00 TS 27.2000 -41.3000 30 1009 hurdat_atl main 2398 2370 O_____________ hurdat_atl AL142001 27.2000 -41.3000 TD 30 1009 -1 3 288
2001301N27325 2001 86 NA NA LORENZO 2001-10-29 03:00:00 TS 27.4199 -41.5620 main 2366 2324 P_____________ AL142001 27.4199 -41.5620 TD 30 1009 -1 7 313
2001301N27325 2001 86 NA NA LORENZO 2001-10-29 06:00:00 TS 27.7000 -41.9000 30 1009 hurdat_atl main 2324 2303 O_____________ hurdat_atl AL142001 27.7000 -41.9000 TD 30 1009 -1 7 299
2001301N27325 2001 86 NA NA LORENZO 2001-10-29 09:00:00 TS 27.7724 -42.2704 main 2299 2285 P_____________ AL142001 27.7724 -42.2704 TD 30 1009 -1 7 278
2001301N27325 2001 86 NA NA LORENZO 2001-10-29 12:00:00 TS 27.8000 -42.7000 30 1009 hurdat_atl main 2285 2257 O_____________ hurdat_atl AL142001 27.8000 -42.7000 TD 30 1009 -1 1016 175 60 8 277
2001301N27325 2001 86 NA NA LORENZO 2001-10-29 15:00:00 TS 27.8701 -43.1927 main 2257 2230 P_____________ AL142001 27.8701 -43.1927 TD 30 1009 -1 9 283
2001301N27325 2001 86 NA NA LORENZO 2001-10-29 18:00:00 TS 28.0000 -43.7000 30 1009 hurdat_atl main 2230 2196 O_____________ hurdat_atl AL142001 28.0000 -43.7000 TD 30 1009 -1 9 291
2001301N27325 2001 86 NA NA LORENZO 2001-10-29 21:00:00 TS 28.1973 -44.1578 main 2193 2149 P_____________ AL142001 28.1973 -44.1578 TD 32 1008 -1 9 302
2001301N27325 2001 86 NA NA LORENZO 2001-10-30 00:00:00 TS 28.5000 -44.6000 35 1007 hurdat_atl main 2149 2092 O_____________ hurdat_atl AL142001 28.5000 -44.6000 TS 35 1007 0 11 309
2001301N27325 2001 86 NA NA LORENZO 2001-10-30 03:00:00 TS 28.8753 -45.1094 main 2092 2027 P_____________ AL142001 28.8753 -45.1094 TS 35 1007 0 12 319
2001301N27325 2001 86 NA NA LORENZO 2001-10-30 06:00:00 TS 29.4000 -45.5000 35 1007 hurdat_atl main 2027 1960 O_____________ hurdat_atl AL142001 29.4000 -45.5000 TS 35 1007 0 75 100 25 50 1016 175 60 13 341
2001301N27325 2001 86 NA NA LORENZO 2001-10-30 09:00:00 TS 30.0747 -45.5891 main 1950 1865 P_____________ AL142001 30.0747 -45.5891 TS 35 1007 0 15 357
2001301N27325 2001 86 NA NA LORENZO 2001-10-30 12:00:00 TS 30.9000 -45.6000 35 1007 hurdat_atl main 1865 1760 O_____________ hurdat_atl AL142001 30.9000 -45.6000 TS 35 1007 0 18 352
2001301N27325 2001 86 NA NA LORENZO 2001-10-30 15:00:00 TS 31.8049 -45.8859 main 1760 1662 P_____________ AL142001 31.8049 -45.8859 TS 35 1007 0 19 350
2001301N27325 2001 86 NA NA LORENZO 2001-10-30 18:00:00 TS 32.8000 -46.0000 35 1008 hurdat_atl main 1652 1568 O_____________ hurdat_atl AL142001 32.8000 -46.0000 TS 35 1008 0 20 7
2001301N27325 2001 86 NA NA LORENZO 2001-10-30 21:00:00 TS 33.8047 -45.6146 main 1561 1480 P_____________ AL142001 33.8047 -45.6146 TS 35 1008 0 23 24
2001301N27325 2001 86 NA NA LORENZO 2001-10-31 00:00:00 TS 34.9000 -44.9000 35 1008 hurdat_atl main 1474 1399 O_____________ hurdat_atl AL142001 34.9000 -44.9000 TS 35 1008 0 27 29
2001301N27325 2001 86 NA NA LORENZO 2001-10-31 03:00:00 TS 36.1165 -44.0388 main 1394 1320 P_____________ AL142001 36.1165 -44.0388 TS 35 1008 0 29 30
2001301N27325 2001 86 NA NA LORENZO 2001-10-31 06:00:00 TS 37.4000 -43.1000 35 1008 hurdat_atl main 1316 O_____________ hurdat_atl AL142001 37.4000 -43.1000 TS 35 1008 0 125 125 1016 175 45 30 30

About IBTrACS Database

This database is a web-friendly format of International Best Track Archive for Climate Stewardship (IBTrACS), a global best track data archive curated by NOAA dating back to 1842.

Updated: 2021-12-01